Sinton, TX (78387)

01:00 CST le 04 Mars 2015 (GMT -0600)
Home | Change Station
CLOSE
Current Station
Stations météorologiques personnelles
Location: Taft, TX
Altitude: 66 ft
Stations météo à proximité

Alt. 66 ft 27.98 °N, 97.39 °W | Updated 8 seconds ago

Couvert
Couvert
67.8 ° F
Paraît 67.8 ° F
N
8.1
Vent Variable Vent de ESE
Gusts 8.1 mph

Aujourd'hui
Haut(e) -- | Bas -- ° F
--% Risque de précip.
Hier
Haut(e) -- | Bas -- ° F
Precip. -- pouce
6:51 AM 6:32 PM
Lune gibbeuse croissante, 98% visible
Pression 29.82 pouce
Visibilité 2.0 Miles terrestres
Nuages Couvert 200 ft
Point de rosée 67 ° F
Humidité 98%
Précipitations 0.00 pouce
Profondeur de la couche neigeuse Non disponible.
UV 0 sur 12
Pollen 9.30 sur 12
Qualité de l'air Non disponible.
Flu Activity Non disponible.
METAR KCRP 040651Z 15016KT 2SM BR OVC002 20/19 A2982 RMK AO2 SLP098 T02000194

More Conditions Fewer Conditions

Pression 29.82 pouce
Visibilité 2.0 Miles terrestres
Nuages Couvert 200 ft
Point de rosée 67 ° F
Humidité 98%
Précipitations 0.00 pouce
Profondeur de la couche neigeuse Non disponible.
UV 0 sur 12
Pollen 9.30 sur 12
Qualité de l'air Non disponible.
Flu Activity Non disponible.
METAR KCRP 040651Z 15016KT 2SM BR OVC002 20/19 A2982 RMK AO2 SLP098 T02000194

More Conditions Fewer Conditions

Nowcast | as of 12:21 am CST on March 4, 2015

Light drizzle...with dense fog at times...will continue to affect south Texas this evening...as well as the bays and waterways...and the adjacent coastal waters. Through 3 am CST...the visibility will vary from near zero to 4 miles across the coastal Bend and coastal plains and brush country. The Victoria Crossroads may briefly experience a visibility of around 4 miles in a light mist. Precipitation accumulations will mainly be a trace...but a few locations could record a hundredth of an inch.

×

10-Day Weather Forecast

Almanac

Astronomie

Mar. 04, 2015 Lever Coucher
Temps réel
Crépuscule civil
Crépuscule nautique
Crépuscule astronomique
Lune
Durée de lumière visible
Longueur du jour
Tomorrow will be .
, % of the Moon is Illuminated

Extrêmes aujourd'hui

State Highs State Lows

Community

WunderPhotos

Upload Photos

1,802,402 Photos téléchargées !

WunderBlogs® & News

Nearby

Qualité de l'air

  Qualité de l'air Indice de la qualité de l'air Polluant
Not available.

Épaisseur de neige

Station Depth Altitude

Activité sismique

Ville Distance Mag. Time & Date
Minimum magnitude displayed is 2.5.

Températures des eaux côtières

Lieu Température

Stations météo à proximité